Time;durP1;ratioP1;P1;durP2;ratioP2;P2;SDS_P1;SDS_P2;PMS_P1;PMS_P2;Temp;Humidity;BMP_temperature;BMP_pressure;BME280_temperature;BME280_humidity;BME280_pressure;Samples;Min_cycle;Max_cycle;Signal;HPM_P1;HPM_P2
2021/09/18 00:00:17;;;;;;;2.77;2.63;;;10.10;99.90;;;;;;507368;234;27782;-69
2021/09/18 00:02:18;;;;;;;2.83;2.70;;;10.10;99.90;;;;;;507378;234;27908;-70
2021/09/18 00:04:20;;;;;;;3.03;2.83;;;10.10;99.90;;;;;;507346;234;27786;-70
2021/09/18 00:06:21;;;;;;;3.30;3.00;;;10.10;99.90;;;;;;507353;234;28157;-69
2021/09/18 00:08:22;;;;;;;3.37;2.90;;;10.10;99.90;;;;;;507310;234;28007;-69
2021/09/18 00:10:23;;;;;;;2.97;2.77;;;10.10;99.90;;;;;;507238;234;27608;-69
2021/09/18 00:12:25;;;;;;;2.80;2.60;;;10.10;99.90;;;;;;507337;234;27902;-69
2021/09/18 00:14:26;;;;;;;2.70;2.60;;;10.10;99.90;;;;;;507233;234;27886;-69
2021/09/18 00:16:27;;;;;;;3.00;2.80;;;10.10;99.90;;;;;;506708;234;28451;-69
2021/09/18 00:18:28;;;;;;;2.90;2.70;;;10.10;99.90;;;;;;506677;234;28227;-69
2021/09/18 00:20:30;;;;;;;3.10;2.80;;;10.10;99.90;;;;;;506738;234;28411;-69
2021/09/18 00:22:31;;;;;;;3.03;2.83;;;10.10;99.90;;;;;;506721;234;28276;-70
2021/09/18 00:24:32;;;;;;;3.17;2.87;;;10.00;99.90;;;;;;506716;234;27526;-69
2021/09/18 00:26:34;;;;;;;3.63;3.33;;;10.00;99.90;;;;;;506688;234;27944;-69
2021/09/18 00:28:35;;;;;;;2.90;2.70;;;10.00;99.90;;;;;;506695;234;27872;-69
2021/09/18 00:30:36;;;;;;;3.17;2.97;;;10.00;99.90;;;;;;506743;234;27850;-70
2021/09/18 00:32:37;;;;;;;2.97;2.77;;;10.00;99.90;;;;;;506723;234;27591;-69
2021/09/18 00:34:38;;;;;;;3.00;2.80;;;10.00;99.90;;;;;;506697;234;27644;-69
2021/09/18 00:36:40;;;;;;;3.20;3.00;;;10.00;99.90;;;;;;506731;234;27804;-70
2021/09/18 00:38:41;;;;;;;2.87;2.67;;;10.00;99.90;;;;;;506707;234;27899;-69
2021/09/18 00:40:42;;;;;;;2.90;2.70;;;10.00;99.90;;;;;;506735;234;27537;-70
2021/09/18 00:42:43;;;;;;;4.80;2.87;;;9.90;99.90;;;;;;506739;234;28121;-69
2021/09/18 00:44:45;;;;;;;2.97;2.77;;;9.90;99.90;;;;;;506756;234;28325;-70
2021/09/18 00:46:46;;;;;;;2.77;2.57;;;9.90;99.90;;;;;;506726;234;28187;-69
2021/09/18 00:48:47;;;;;;;3.00;2.80;;;9.90;99.90;;;;;;506731;234;28435;-70
2021/09/18 00:50:48;;;;;;;3.10;2.80;;;9.90;99.90;;;;;;506747;234;27890;-69
2021/09/18 00:52:50;;;;;;;3.50;3.20;;;9.90;99.90;;;;;;506777;234;28012;-69
2021/09/18 00:54:51;;;;;;;3.20;2.90;;;9.90;99.90;;;;;;506715;234;27937;-70
2021/09/18 00:56:55;;;;;;;3.20;3.00;;;9.90;99.90;;;;;;506689;233;27905;-69
2021/09/18 00:58:56;;;;;;;2.97;2.77;;;9.90;99.90;;;;;;506701;234;27963;-70
2021/09/18 01:00:58;;;;;;;3.37;3.00;;;9.80;99.90;;;;;;506721;234;27967;-69
2021/09/18 01:02:59;;;;;;;3.40;3.20;;;9.70;99.90;;;;;;506751;234;27664;-69
2021/09/18 01:05:00;;;;;;;3.23;3.03;;;9.80;99.90;;;;;;506724;234;28009;-69
2021/09/18 01:07:01;;;;;;;2.90;2.73;;;9.80;99.90;;;;;;506750;234;27907;-69
2021/09/18 01:09:03;;;;;;;3.40;3.10;;;9.80;99.90;;;;;;506596;234;27880;-69
2021/09/18 01:11:04;;;;;;;3.63;3.33;;;9.80;99.90;;;;;;506663;234;27880;-70
2021/09/18 01:13:05;;;;;;;3.13;2.93;;;9.70;99.90;;;;;;506724;235;29376;-70
2021/09/18 01:15:06;;;;;;;3.17;2.97;;;9.70;99.90;;;;;;506709;235;28198;-69
2021/09/18 01:17:08;;;;;;;3.07;2.87;;;9.70;99.90;;;;;;506708;234;28325;-70
2021/09/18 01:19:09;;;;;;;3.10;2.90;;;9.60;99.90;;;;;;506731;235;28490;-69
2021/09/18 01:21:10;;;;;;;3.13;2.93;;;9.60;99.90;;;;;;506699;234;29157;-69
2021/09/18 01:23:11;;;;;;;2.67;2.57;;;9.60;99.90;;;;;;506724;235;27921;-69
2021/09/18 01:25:13;;;;;;;3.10;2.90;;;9.50;99.90;;;;;;506710;235;27562;-69
2021/09/18 01:27:14;;;;;;;3.20;3.00;;;9.50;99.90;;;;;;506709;235;27859;-69
2021/09/18 01:29:15;;;;;;;3.07;2.77;;;9.40;99.90;;;;;;506719;235;27647;-69
2021/09/18 01:31:16;;;;;;;3.00;2.80;;;9.50;99.90;;;;;;506665;235;27770;-69
2021/09/18 01:33:18;;;;;;;3.20;3.00;;;9.40;99.90;;;;;;506746;235;27536;-69
2021/09/18 01:35:19;;;;;;;3.20;3.00;;;9.40;99.90;;;;;;506752;235;27775;-70
2021/09/18 01:37:20;;;;;;;3.40;2.70;;;9.50;99.90;;;;;;506709;234;28024;-69
2021/09/18 01:39:22;;;;;;;3.20;3.00;;;9.40;99.90;;;;;;506737;234;27766;-70
2021/09/18 01:41:23;;;;;;;2.87;2.67;;;9.40;99.90;;;;;;506726;234;28030;-70
2021/09/18 01:43:26;;;;;;;3.10;2.90;;;9.40;99.90;;;;;;506760;234;27883;-70
2021/09/18 01:45:25;;;;;;;3.20;3.00;;;9.40;99.90;;;;;;506568;234;27699;-71
2021/09/18 01:47:26;;;;;;;3.03;2.83;;;9.40;99.90;;;;;;506763;234;27841;-69
2021/09/18 01:49:28;;;;;;;2.90;2.70;;;9.40;99.90;;;;;;506737;234;28130;-69
2021/09/18 01:51:31;;;;;;;2.90;2.70;;;9.40;99.90;;;;;;506679;234;28316;-69
2021/09/18 01:53:30;;;;;;;3.80;3.50;;;9.40;99.90;;;;;;506560;234;28343;-69
2021/09/18 01:55:31;;;;;;;3.13;2.93;;;9.40;99.90;;;;;;506758;234;28694;-69
2021/09/18 01:57:33;;;;;;;3.40;3.20;;;9.40;99.90;;;;;;506718;234;28447;-69
2021/09/18 01:59:34;;;;;;;3.37;3.17;;;9.40;99.90;;;;;;506558;234;28373;-69
2021/09/18 02:01:35;;;;;;;5.20;3.20;;;9.30;99.90;;;;;;506497;234;28423;-70
2021/09/18 02:03:36;;;;;;;3.20;3.00;;;9.30;99.90;;;;;;506527;234;28034;-69
2021/09/18 02:05:38;;;;;;;3.03;2.83;;;9.30;99.90;;;;;;506621;234;27681;-69
2021/09/18 02:07:39;;;;;;;2.97;2.77;;;9.30;99.90;;;;;;506772;234;27547;-70
2021/09/18 02:09:40;;;;;;;3.07;2.87;;;9.20;99.90;;;;;;506743;234;28010;-70
2021/09/18 02:11:41;;;;;;;3.30;3.10;;;9.20;99.90;;;;;;506747;234;28072;-70
2021/09/18 02:13:43;;;;;;;3.07;2.87;;;9.20;99.90;;;;;;506782;234;27905;-69
2021/09/18 02:15:44;;;;;;;3.00;2.80;;;9.20;99.90;;;;;;506762;234;27945;-69
2021/09/18 02:17:45;;;;;;;2.90;2.70;;;9.10;99.90;;;;;;506745;233;27923;-69
2021/09/18 02:19:46;;;;;;;2.93;2.73;;;9.20;99.90;;;;;;506740;234;27604;-69
2021/09/18 02:21:48;;;;;;;3.07;2.77;;;9.10;99.90;;;;;;506737;234;27589;-69
2021/09/18 02:23:49;;;;;;;7.27;3.07;;;9.20;99.90;;;;;;506759;234;27777;-70
2021/09/18 02:25:50;;;;;;;3.10;2.90;;;9.20;99.90;;;;;;506795;234;27733;-69
2021/09/18 02:27:51;;;;;;;3.20;2.90;;;9.20;99.90;;;;;;506748;234;27760;-69
2021/09/18 02:29:53;;;;;;;2.87;2.67;;;9.20;99.90;;;;;;506783;234;27470;-69
2021/09/18 02:31:54;;;;;;;3.30;3.10;;;9.20;99.90;;;;;;506744;234;29279;-69
2021/09/18 02:33:55;;;;;;;3.67;3.37;;;9.10;99.90;;;;;;506781;234;28421;-69
2021/09/18 02:35:56;;;;;;;3.20;3.00;;;9.10;99.90;;;;;;506786;234;28376;-69
2021/09/18 02:37:58;;;;;;;3.33;3.10;;;9.10;99.90;;;;;;506697;234;30358;-69
2021/09/18 02:39:59;;;;;;;3.13;2.90;;;9.10;99.90;;;;;;506740;234;28176;-69
2021/09/18 02:42:00;;;;;;;3.90;3.50;;;9.10;99.90;;;;;;506721;234;27973;-69
2021/09/18 02:44:01;;;;;;;3.60;3.30;;;9.10;99.90;;;;;;506755;234;27845;-70
2021/09/18 02:46:03;;;;;;;3.47;3.17;;;9.10;99.90;;;;;;506723;234;27909;-69
2021/09/18 02:48:04;;;;;;;3.50;3.20;;;9.10;99.90;;;;;;506740;234;27917;-69
2021/09/18 02:50:05;;;;;;;3.23;2.93;;;9.10;99.90;;;;;;506726;234;27974;-69
2021/09/18 02:52:06;;;;;;;3.30;3.00;;;9.00;99.90;;;;;;506699;234;27800;-69
2021/09/18 02:54:08;;;;;;;4.10;3.70;;;9.00;99.90;;;;;;506767;234;28040;-70
2021/09/18 02:56:09;;;;;;;4.17;3.77;;;9.00;99.90;;;;;;506759;234;27909;-69
2021/09/18 02:58:10;;;;;;;3.40;3.10;;;9.00;99.90;;;;;;506766;234;28031;-69
2021/09/18 03:00:11;;;;;;;3.67;3.37;;;9.00;99.90;;;;;;506729;234;28019;-69
2021/09/18 03:02:13;;;;;;;3.70;3.40;;;9.00;99.90;;;;;;506755;234;27924;-69
2021/09/18 03:04:14;;;;;;;3.73;3.43;;;9.00;99.90;;;;;;506770;234;27896;-70
2021/09/18 03:06:15;;;;;;;3.70;3.40;;;9.00;99.90;;;;;;506782;234;27702;-69
2021/09/18 03:08:16;;;;;;;3.73;3.43;;;9.00;99.90;;;;;;506740;234;27893;-70
2021/09/18 03:10:18;;;;;;;4.10;3.80;;;9.00;99.90;;;;;;506715;234;28348;-69
2021/09/18 03:12:19;;;;;;;4.33;3.77;;;9.00;99.90;;;;;;506711;234;28800;-70
2021/09/18 03:14:20;;;;;;;4.30;4.00;;;9.00;99.90;;;;;;506758;234;28317;-70
2021/09/18 03:16:21;;;;;;;4.40;4.00;;;9.00;99.90;;;;;;506761;234;28347;-70
2021/09/18 03:18:23;;;;;;;3.60;3.30;;;9.00;99.90;;;;;;506741;234;28478;-69
2021/09/18 03:20:24;;;;;;;4.57;3.40;;;9.00;99.90;;;;;;506739;234;27568;-69
2021/09/18 03:22:25;;;;;;;3.40;3.10;;;9.00;99.90;;;;;;506717;234;28013;-69
2021/09/18 03:24:26;;;;;;;4.00;3.70;;;9.10;99.90;;;;;;506758;234;27903;-69
2021/09/18 03:26:28;;;;;;;4.00;3.60;;;9.10;99.90;;;;;;506764;234;27981;-69
2021/09/18 03:28:29;;;;;;;3.83;3.53;;;9.10;99.90;;;;;;506764;234;27777;-70
2021/09/18 03:30:30;;;;;;;3.67;3.37;;;9.10;99.90;;;;;;506702;233;28022;-70
2021/09/18 03:32:31;;;;;;;3.60;3.20;;;9.10;99.90;;;;;;506754;234;27997;-69
2021/09/18 03:34:33;;;;;;;4.00;3.60;;;9.00;99.90;;;;;;506765;234;27688;-70
2021/09/18 03:36:34;;;;;;;4.57;4.17;;;9.00;99.90;;;;;;506710;234;27712;-70
2021/09/18 03:38:35;;;;;;;4.40;3.90;;;9.00;99.90;;;;;;506728;234;27578;-69
2021/09/18 03:40:36;;;;;;;3.80;3.40;;;9.00;99.90;;;;;;506724;234;27929;-70
2021/09/18 03:42:38;;;;;;;3.50;3.20;;;9.00;99.90;;;;;;506702;234;27970;-69
2021/09/18 03:44:39;;;;;;;3.60;3.30;;;9.00;99.90;;;;;;506724;234;27427;-69
2021/09/18 03:46:40;;;;;;;3.30;3.00;;;9.00;99.90;;;;;;506710;234;27894;-69
2021/09/18 03:48:41;;;;;;;3.50;3.23;;;9.00;99.90;;;;;;506726;234;28344;-69
2021/09/18 03:50:43;;;;;;;3.70;3.40;;;8.90;99.90;;;;;;506712;234;28779;-69
2021/09/18 03:52:44;;;;;;;3.87;3.53;;;8.90;99.90;;;;;;506727;234;29086;-69
2021/09/18 03:54:45;;;;;;;4.13;3.70;;;8.90;99.90;;;;;;506756;234;27991;-69
2021/09/18 03:56:46;;;;;;;4.03;3.63;;;8.90;99.90;;;;;;506733;234;28462;-70
2021/09/18 03:58:48;;;;;;;3.47;3.17;;;8.90;99.90;;;;;;506756;234;27847;-69
2021/09/18 04:00:49;;;;;;;4.17;3.60;;;8.80;99.90;;;;;;506744;234;27797;-69
2021/09/18 04:02:50;;;;;;;3.67;3.37;;;8.80;99.90;;;;;;506749;234;27949;-70
2021/09/18 04:04:51;;;;;;;4.00;3.70;;;8.80;99.90;;;;;;506768;234;27900;-70
2021/09/18 04:06:53;;;;;;;3.23;3.00;;;8.80;99.90;;;;;;506754;234;28406;-70
2021/09/18 04:08:54;;;;;;;3.73;3.43;;;8.80;99.90;;;;;;506722;234;27891;-69
2021/09/18 04:10:55;;;;;;;3.43;3.13;;;8.80;99.90;;;;;;506719;234;28204;-70
2021/09/18 04:12:56;;;;;;;3.80;3.50;;;8.80;99.90;;;;;;506710;234;28030;-70
2021/09/18 04:14:58;;;;;;;3.73;3.43;;;8.80;99.90;;;;;;506744;234;27791;-69
2021/09/18 04:16:59;;;;;;;4.23;3.87;;;8.80;99.90;;;;;;506723;234;27555;-70
2021/09/18 04:19:00;;;;;;;4.23;3.83;;;8.80;99.90;;;;;;506713;234;27757;-69
2021/09/18 04:21:01;;;;;;;3.60;3.30;;;8.80;99.90;;;;;;506697;234;27496;-69
2021/09/18 04:23:03;;;;;;;4.03;3.67;;;8.80;99.90;;;;;;506755;234;28023;-69
2021/09/18 04:25:04;;;;;;;3.70;3.40;;;8.80;99.90;;;;;;506742;234;28010;-69
2021/09/18 04:27:05;;;;;;;3.90;3.60;;;8.70;99.90;;;;;;506730;234;28305;-69
2021/09/18 04:29:06;;;;;;;3.90;3.60;;;8.70;99.90;;;;;;506701;234;27976;-69
2021/09/18 04:31:08;;;;;;;4.30;3.50;;;8.70;99.90;;;;;;506724;234;28045;-69
2021/09/18 04:33:09;;;;;;;4.30;3.90;;;8.70;99.90;;;;;;506725;234;28628;-69
2021/09/18 04:35:10;;;;;;;4.60;4.20;;;8.70;99.90;;;;;;506719;234;28392;-69
2021/09/18 04:37:11;;;;;;;4.00;3.67;;;8.80;99.90;;;;;;506729;234;28026;-69
2021/09/18 04:39:13;;;;;;;4.17;3.77;;;8.70;99.90;;;;;;506753;234;27979;-70
2021/09/18 04:41:14;;;;;;;4.70;4.30;;;8.70;99.90;;;;;;506729;234;28027;-69
2021/09/18 04:43:15;;;;;;;3.90;3.60;;;8.70;99.90;;;;;;506741;234;27584;-70
2021/09/18 04:45:16;;;;;;;4.00;3.70;;;8.70;99.90;;;;;;506769;234;27546;-69
2021/09/18 04:47:18;;;;;;;3.83;3.53;;;8.70;99.90;;;;;;506757;234;28079;-69
2021/09/18 04:49:19;;;;;;;3.97;3.67;;;8.70;99.90;;;;;;506743;234;27885;-69
2021/09/18 04:51:20;;;;;;;4.57;4.17;;;8.70;99.90;;;;;;506722;234;27927;-69
2021/09/18 04:53:23;;;;;;;4.00;3.60;;;8.60;99.90;;;;;;506794;234;28046;-69
2021/09/18 04:55:24;;;;;;;4.10;3.70;;;8.60;99.90;;;;;;506746;234;28014;-69
2021/09/18 04:57:25;;;;;;;4.60;4.20;;;8.60;99.90;;;;;;506715;234;27966;-69
2021/09/18 04:59:26;;;;;;;4.37;4.00;;;8.60;99.90;;;;;;506766;234;27818;-69
2021/09/18 05:01:28;;;;;;;4.03;3.63;;;8.60;99.90;;;;;;506760;234;27805;-69
2021/09/18 05:03:29;;;;;;;3.90;3.60;;;8.60;99.90;;;;;;506694;234;27962;-70
2021/09/18 05:05:30;;;;;;;4.20;3.80;;;8.70;99.90;;;;;;506690;234;28400;-69
2021/09/18 05:07:32;;;;;;;3.77;3.47;;;8.70;99.90;;;;;;506736;234;28445;-69
2021/09/18 05:09:33;;;;;;;4.13;3.70;;;8.70;99.90;;;;;;506759;234;27887;-70
2021/09/18 05:11:34;;;;;;;4.17;3.83;;;8.70;99.90;;;;;;506736;234;28007;-69
2021/09/18 05:13:35;;;;;;;4.10;3.80;;;8.70;99.90;;;;;;506717;235;27798;-70
2021/09/18 05:15:36;;;;;;;4.43;4.03;;;8.60;99.90;;;;;;506721;235;27788;-70
2021/09/18 05:17:38;;;;;;;4.40;3.87;;;8.60;99.90;;;;;;506747;235;28073;-69
2021/09/18 05:19:39;;;;;;;4.70;4.07;;;8.60;99.90;;;;;;506718;235;27906;-70
2021/09/18 05:21:40;;;;;;;4.33;3.93;;;8.60;99.90;;;;;;506721;235;27905;-70
2021/09/18 05:23:41;;;;;;;4.63;4.23;;;8.60;99.90;;;;;;506711;235;27958;-69
2021/09/18 05:25:43;;;;;;;4.07;3.77;;;8.70;99.90;;;;;;506702;235;28011;-69
2021/09/18 05:27:44;;;;;;;4.40;4.00;;;8.70;99.90;;;;;;506743;235;28031;-69
2021/09/18 05:29:45;;;;;;;4.67;4.00;;;8.80;99.90;;;;;;506722;235;28376;-69
2021/09/18 05:31:46;;;;;;;4.30;4.00;;;8.80;99.90;;;;;;506733;235;28405;-70
2021/09/18 05:33:48;;;;;;;4.30;3.90;;;8.80;99.90;;;;;;506697;235;28372;-69
2021/09/18 05:35:49;;;;;;;4.57;4.17;;;8.80;99.90;;;;;;506738;235;28343;-70
2021/09/18 05:37:50;;;;;;;3.70;3.40;;;8.80;99.90;;;;;;506733;235;28259;-69
2021/09/18 05:39:51;;;;;;;4.43;4.03;;;8.80;99.90;;;;;;506728;234;28092;-69
2021/09/18 05:41:53;;;;;;;4.43;4.03;;;8.80;99.90;;;;;;506715;235;27921;-69
2021/09/18 05:43:54;;;;;;;4.20;3.80;;;8.90;99.90;;;;;;506694;235;27999;-70
2021/09/18 05:45:55;;;;;;;4.03;3.73;;;8.90;99.90;;;;;;506738;235;27873;-70
2021/09/18 05:47:56;;;;;;;4.57;3.67;;;8.90;99.90;;;;;;506731;235;27817;-70
2021/09/18 05:49:58;;;;;;;3.90;3.60;;;8.90;99.90;;;;;;506663;235;27866;-69
2021/09/18 05:51:59;;;;;;;4.23;3.83;;;8.90;99.90;;;;;;506711;234;27968;-70
2021/09/18 05:54:00;;;;;;;4.00;3.70;;;8.90;99.90;;;;;;506618;235;28222;-69
2021/09/18 05:56:01;;;;;;;4.30;3.83;;;9.00;99.90;;;;;;506729;235;27584;-69
2021/09/18 05:58:03;;;;;;;4.03;3.73;;;9.00;99.90;;;;;;506704;235;27875;-70
2021/09/18 06:00:04;;;;;;;3.93;3.63;;;9.00;99.90;;;;;;506703;235;27996;-69
2021/09/18 06:02:05;;;;;;;4.30;3.90;;;9.10;99.90;;;;;;506687;235;27877;-69
2021/09/18 06:04:06;;;;;;;5.07;4.00;;;9.10;99.90;;;;;;506549;235;27952;-70
2021/09/18 06:06:08;;;;;;;4.27;3.87;;;9.10;99.90;;;;;;506738;235;28451;-69
2021/09/18 06:08:09;;;;;;;8.20;5.20;;;9.20;99.90;;;;;;506714;235;28263;-69
2021/09/18 06:10:10;;;;;;;34.80;15.57;;;9.20;99.90;;;;;;506718;235;28528;-70
2021/09/18 06:12:11;;;;;;;59.17;23.70;;;9.20;99.90;;;;;;506720;235;28384;-69
2021/09/18 06:14:13;;;;;;;64.20;25.50;;;9.30;99.90;;;;;;506720;235;27908;-70
2021/09/18 06:16:14;;;;;;;74.23;28.00;;;9.30;99.90;;;;;;506742;235;27879;-70
2021/09/18 06:18:15;;;;;;;60.73;25.13;;;9.30;99.90;;;;;;506711;235;27559;-69
2021/09/18 06:20:16;;;;;;;58.80;24.03;;;9.30;99.90;;;;;;506678;235;28008;-69
2021/09/18 06:22:18;;;;;;;44.47;19.23;;;9.40;99.90;;;;;;506717;234;28066;-69
2021/09/18 06:24:19;;;;;;;35.40;16.30;;;9.40;99.90;;;;;;506707;234;27951;-69
2021/09/18 06:26:20;;;;;;;29.73;13.80;;;9.40;99.90;;;;;;506770;234;28480;-69
2021/09/18 06:28:21;;;;;;;26.77;13.30;;;9.40;99.90;;;;;;506735;234;28056;-69
2021/09/18 06:30:23;;;;;;;23.23;11.63;;;9.50;99.90;;;;;;506736;233;28199;-69
2021/09/18 06:32:26;;;;;;;22.30;10.97;;;9.50;99.90;;;;;;506702;234;28112;-69
2021/09/18 06:34:25;;;;;;;17.50;9.70;;;9.60;99.90;;;;;;506577;234;27913;-69
2021/09/18 06:36:26;;;;;;;15.03;8.77;;;9.70;99.90;;;;;;506773;234;27885;-69
2021/09/18 06:38:28;;;;;;;12.63;8.03;;;9.80;99.90;;;;;;506753;234;28049;-69
2021/09/18 06:40:29;;;;;;;14.33;8.30;;;9.90;99.90;;;;;;506753;234;27790;-69
2021/09/18 06:42:30;;;;;;;9.33;6.20;;;10.00;99.90;;;;;;506736;234;28002;-69
2021/09/18 06:44:32;;;;;;;9.73;6.33;;;10.10;99.90;;;;;;506726;234;28337;-70
2021/09/18 06:46:33;;;;;;;9.83;6.90;;;10.10;99.90;;;;;;506790;234;27893;-69
2021/09/18 06:48:34;;;;;;;11.00;7.53;;;10.20;99.90;;;;;;506721;234;27541;-70
2021/09/18 06:50:37;;;;;;;16.10;9.17;;;10.20;99.90;;;;;;506742;234;28448;-69
2021/09/18 06:52:37;;;;;;;15.37;9.37;;;10.30;99.90;;;;;;506564;234;28177;-69
2021/09/18 06:54:38;;;;;;;15.67;9.50;;;10.40;99.90;;;;;;506716;234;27984;-69
2021/09/18 06:56:39;;;;;;;17.47;10.20;;;10.40;99.90;;;;;;506743;234;27979;-70
2021/09/18 06:58:40;;;;;;;17.30;10.23;;;10.50;99.90;;;;;;506726;234;27711;-70
2021/09/18 07:00:42;;;;;;;17.80;10.37;;;;;;;;;;506720;234;27860;-69
2021/09/18 07:02:44;;;;;;;18.97;10.63;;;10.50;99.90;;;;;;506704;234;27494;-69
2021/09/18 07:04:45;;;;;;;17.23;10.87;;;10.60;99.90;;;;;;506719;234;28333;-69
2021/09/18 07:06:46;;;;;;;24.23;13.40;;;10.60;99.90;;;;;;506781;234;28393;-69
2021/09/18 07:08:47;;;;;;;27.10;14.57;;;10.70;99.90;;;;;;506748;234;27883;-69
2021/09/18 07:10:49;;;;;;;23.00;14.03;;;10.70;99.90;;;;;;506746;234;27769;-70
2021/09/18 07:12:50;;;;;;;22.57;12.73;;;10.80;99.90;;;;;;506685;234;28077;-70
2021/09/18 07:14:51;;;;;;;20.70;12.90;;;10.80;99.90;;;;;;506741;234;27939;-70
2021/09/18 07:16:52;;;;;;;25.67;14.47;;;10.80;99.90;;;;;;506713;234;27711;-70
2021/09/18 07:18:54;;;;;;;20.10;12.53;;;10.90;99.90;;;;;;506752;234;28328;-70
2021/09/18 07:20:55;;;;;;;21.87;12.93;;;10.90;99.90;;;;;;506715;234;28147;-70
2021/09/18 07:22:56;;;;;;;19.23;12.00;;;11.00;99.90;;;;;;506703;234;27983;-70
2021/09/18 07:24:58;;;;;;;17.70;11.80;;;11.10;99.90;;;;;;506721;234;27997;-70
2021/09/18 07:26:59;;;;;;;16.47;11.67;;;11.10;99.90;;;;;;506751;234;28025;-70
2021/09/18 07:29:00;;;;;;;18.30;11.80;;;11.30;99.90;;;;;;506730;234;27808;-70
2021/09/18 07:31:01;;;;;;;19.60;12.23;;;11.40;99.90;;;;;;506692;234;27926;-70
2021/09/18 07:33:02;;;;;;;22.33;13.47;;;11.40;99.90;;;;;;506700;234;28480;-69
2021/09/18 07:35:07;;;;;;;17.43;12.70;;;11.40;99.90;;;;;;506728;234;28411;-70
2021/09/18 07:37:08;;;;;;;20.83;13.23;;;11.60;99.90;;;;;;506729;234;28122;-70
2021/09/18 07:39:09;;;;;;;21.03;13.53;;;11.70;99.90;;;;;;506698;234;28196;-70
2021/09/18 07:41:10;;;;;;;20.90;13.60;;;11.90;99.90;;;;;;506699;234;27969;-70
2021/09/18 07:43:12;;;;;;;20.67;13.63;;;11.90;99.90;;;;;;506710;234;27946;-70
2021/09/18 07:45:13;;;;;;;22.30;13.83;;;12.00;99.90;;;;;;506712;234;28392;-70
2021/09/18 07:47:14;;;;;;;21.60;14.20;;;12.20;99.90;;;;;;506726;234;28598;-70
2021/09/18 07:49:16;;;;;;;19.67;13.63;;;12.30;99.90;;;;;;506722;234;28538;-70
2021/09/18 07:51:17;;;;;;;17.43;12.17;;;12.40;99.90;;;;;;506669;234;28030;-70
2021/09/18 07:53:18;;;;;;;22.37;13.60;;;12.60;99.90;;;;;;506688;234;28123;-70
2021/09/18 07:55:19;;;;;;;21.37;14.17;;;12.70;99.90;;;;;;506742;234;28292;-70
2021/09/18 07:57:21;;;;;;;23.30;15.30;;;12.90;99.90;;;;;;506734;234;28183;-69
2021/09/18 07:59:22;;;;;;;35.90;20.57;;;13.00;99.90;;;;;;506649;234;28292;-70
2021/09/18 08:01:24;;;;;;;29.87;19.10;;;13.20;99.90;;;;;;506694;234;28882;-70
2021/09/18 08:03:24;;;;;;;26.47;17.10;;;13.40;99.90;;;;;;506633;234;29104;-70
2021/09/18 08:05:25;;;;;;;26.27;16.90;;;13.60;99.90;;;;;;506749;234;28273;-70
2021/09/18 08:07:27;;;;;;;32.63;19.00;;;13.60;99.90;;;;;;506724;234;27948;-70
2021/09/18 08:09:28;;;;;;;29.00;18.27;;;13.70;99.90;;;;;;506694;234;28163;-70
2021/09/18 08:11:29;;;;;;;29.17;17.37;;;13.70;99.90;;;;;;506642;234;28457;-70
2021/09/18 08:13:31;;;;;;;25.70;16.50;;;13.70;99.90;;;;;;506695;234;28777;-72
2021/09/18 08:15:32;;;;;;;25.37;16.00;;;13.80;99.90;;;;;;506721;234;28866;-70
2021/09/18 08:17:33;;;;;;;23.53;14.77;;;13.90;99.90;;;;;;506704;234;28582;-72
2021/09/18 08:19:34;;;;;;;19.90;12.80;;;14.00;99.90;;;;;;506709;234;28053;-70
2021/09/18 08:21:36;;;;;;;16.77;11.60;;;14.30;99.90;;;;;;506678;234;28094;-70
2021/09/18 08:23:37;;;;;;;15.17;10.60;;;14.40;99.90;;;;;;506719;234;28224;-69
2021/09/18 08:25:38;;;;;;;16.57;9.43;;;14.40;99.90;;;;;;506729;234;28297;-69
2021/09/18 08:27:39;;;;;;;10.87;8.70;;;14.60;99.90;;;;;;506648;234;28515;-70
2021/09/18 08:29:41;;;;;;;9.70;7.20;;;14.60;99.90;;;;;;506690;234;28176;-71
2021/09/18 08:31:42;;;;;;;9.77;7.90;;;14.50;99.90;;;;;;506682;234;29885;-72
2021/09/18 08:33:43;;;;;;;10.00;7.23;;;14.70;99.90;;;;;;506718;234;28672;-69
2021/09/18 08:35:44;;;;;;;7.90;6.77;;;14.80;99.90;;;;;;506724;234;28637;-72
2021/09/18 08:37:46;;;;;;;8.97;7.03;;;14.90;99.90;;;;;;506695;234;28226;-72
2021/09/18 08:39:47;;;;;;;10.17;6.47;;;14.80;99.90;;;;;;506691;234;28217;-72
2021/09/18 08:41:48;;;;;;;9.20;6.87;;;15.10;99.90;;;;;;506739;234;28364;-71
2021/09/18 08:43:49;;;;;;;8.70;6.53;;;15.20;99.90;;;;;;506742;234;28341;-71
2021/09/18 08:45:51;;;;;;;11.23;7.10;;;15.30;99.90;;;;;;506705;234;28168;-72
2021/09/18 08:47:52;;;;;;;8.40;6.00;;;15.40;99.90;;;;;;506740;234;28112;-72
2021/09/18 08:49:54;;;;;;;7.57;6.30;;;15.30;99.90;;;;;;506695;234;28287;-71
2021/09/18 08:51:54;;;;;;;7.33;5.80;;;15.40;99.90;;;;;;506681;234;28176;-69
2021/09/18 08:53:56;;;;;;;7.23;5.70;;;15.30;99.90;;;;;;506712;234;28804;-71
2021/09/18 08:55:57;;;;;;;11.40;7.70;;;15.40;99.90;;;;;;506701;234;28852;-69
2021/09/18 08:57:58;;;;;;;10.07;6.57;;;15.40;99.90;;;;;;506665;234;28713;-72
2021/09/18 08:59:59;;;;;;;9.20;6.77;;;15.60;99.90;;;;;;506659;234;28188;-72
2021/09/18 09:02:01;;;;;;;7.67;6.03;;;15.50;99.90;;;;;;506736;234;28372;-72
2021/09/18 09:04:02;;;;;;;7.77;6.47;;;15.60;99.90;;;;;;506740;234;28490;-71
2021/09/18 09:06:03;;;;;;;8.40;6.23;;;15.90;99.90;;;;;;506739;234;28515;-72
2021/09/18 09:08:04;;;;;;;8.23;5.50;;;16.10;99.90;;;;;;506698;234;28498;-72
2021/09/18 09:10:06;;;;;;;5.43;4.90;;;16.40;99.90;;;;;;506699;234;28440;-71
2021/09/18 09:12:07;;;;;;;6.10;5.30;;;16.40;99.90;;;;;;506710;234;28587;-72
2021/09/18 09:14:08;;;;;;;4.93;4.53;;;16.50;99.90;;;;;;506694;234;29261;-72
2021/09/18 09:16:09;;;;;;;5.90;4.60;;;16.60;99.90;;;;;;506717;235;29279;-71
2021/09/18 09:18:11;;;;;;;4.03;3.73;;;16.50;99.90;;;;;;506690;235;29285;-69
2021/09/18 09:20:12;;;;;;;5.30;4.60;;;16.30;99.90;;;;;;506579;235;28807;-71
2021/09/18 09:22:13;;;;;;;5.80;4.77;;;16.70;99.90;;;;;;506728;235;28957;-71
2021/09/18 09:24:14;;;;;;;6.53;5.20;;;16.60;99.90;;;;;;506690;235;28799;-71
2021/09/18 09:26:16;;;;;;;5.93;5.07;;;16.80;99.90;;;;;;506710;235;28768;-70
2021/09/18 09:28:17;;;;;;;4.77;4.27;;;16.80;99.90;;;;;;506690;235;28725;-70
2021/09/18 09:30:18;;;;;;;4.90;4.40;;;16.80;99.90;;;;;;506702;235;28808;-70
2021/09/18 09:32:19;;;;;;;4.83;4.33;;;16.80;99.90;;;;;;506731;235;28771;-70
2021/09/18 09:34:21;;;;;;;4.50;4.10;;;16.90;99.90;;;;;;506693;235;28795;-70
2021/09/18 09:36:22;;;;;;;5.00;3.90;;;17.10;99.90;;;;;;506678;235;28780;-70
2021/09/18 09:38:23;;;;;;;4.00;3.70;;;16.90;99.90;;;;;;506670;235;29197;-72
2021/09/18 09:40:24;;;;;;;6.40;4.00;;;16.90;99.90;;;;;;506674;235;29267;-72
2021/09/18 09:42:26;;;;;;;3.83;3.53;;;17.00;99.90;;;;;;506713;235;29219;-71
2021/09/18 09:44:27;;;;;;;5.83;3.67;;;17.10;99.90;;;;;;506698;235;28844;-72
2021/09/18 09:46:28;;;;;;;3.90;3.43;;;17.20;99.90;;;;;;506703;235;28847;-72
2021/09/18 09:48:29;;;;;;;3.13;2.93;;;17.30;99.90;;;;;;506698;235;28757;-72
2021/09/18 09:50:31;;;;;;;4.40;3.70;;;17.30;99.90;;;;;;506705;235;28763;-70
2021/09/18 09:52:32;;;;;;;4.90;4.03;;;17.20;99.90;;;;;;506724;235;28787;-70
2021/09/18 09:54:33;;;;;;;12.80;6.90;;;17.10;99.90;;;;;;506707;234;28761;-70
2021/09/18 09:56:34;;;;;;;8.07;5.80;;;17.10;99.90;;;;;;506654;235;28905;-69
2021/09/18 09:58:36;;;;;;;7.93;5.63;;;17.30;99.90;;;;;;506691;234;28814;-72
2021/09/18 10:00:37;;;;;;;6.57;5.13;;;17.30;99.90;;;;;;506720;234;28762;-72
2021/09/18 10:02:38;;;;;;;5.60;4.53;;;17.30;99.90;;;;;;506730;234;29330;-71
2021/09/18 10:04:39;;;;;;;5.50;4.00;;;17.50;99.90;;;;;;506734;234;29263;-70
2021/09/18 10:06:41;;;;;;;4.30;3.90;;;17.50;99.90;;;;;;506698;234;29366;-69
2021/09/18 10:08:45;;;;;;;4.93;4.43;;;17.20;99.90;;;;;;506683;234;29124;-72
2021/09/18 10:10:43;;;;;;;5.00;4.30;;;17.30;99.90;;;;;;506446;234;28760;-72
2021/09/18 10:12:44;;;;;;;4.40;4.00;;;17.50;99.90;;;;;;506733;234;28790;-72
2021/09/18 10:14:46;;;;;;;4.30;3.90;;;17.60;99.90;;;;;;506729;234;28733;-72
2021/09/18 10:16:47;;;;;;;3.77;3.40;;;17.60;99.90;;;;;;506751;234;28769;-71
2021/09/18 10:18:49;;;;;;;7.37;4.33;;;17.60;99.90;;;;;;506730;234;28903;-72
2021/09/18 10:25:13;;;;;;;3.87;3.50;;;18.00;99.90;;;;;;506565;234;28799;-71
2021/09/18 10:27:14;;;;;;;5.20;3.93;;;18.10;99.90;;;;;;506461;234;28785;-72
2021/09/18 10:29:16;;;;;;;4.00;3.60;;;17.90;99.90;;;;;;506716;234;28744;-72
2021/09/18 10:31:17;;;;;;;4.40;3.23;;;17.90;99.90;;;;;;506724;234;28875;-72
2021/09/18 10:33:18;;;;;;;3.63;3.33;;;18.00;99.90;;;;;;506738;234;28729;-72
2021/09/18 10:35:19;;;;;;;4.30;3.60;;;17.80;99.90;;;;;;506736;234;29239;-71